Main page
METAR-TAF:

METAR-TAF

Airports :

Pine Ridge Airport

Pine Ridge, South Dakota, United States

latitude: 43-01-32N, longitude: 102-31-23W, elevation: 3329 ft

Current weather observation

The report was made 27 minutes ago, at 13:52 UTC
Wind 3 mph from the West/Northwest
Temperature 30°F
Humidity 64%
Pressure 29.80 in. Hg
Visibility: 10 miles
Clear sky

METAR: KIEN 291352Z AUTO 29003KT 10SM CLR M01/M07 A2980 RMK AO2 SLP115 T10111067

Time: 07:19 (14:19 UTC)


TAF: missing

Weather observations and forecasts of more than 4000 airports (METAR and TAF reports).

The available stations are represented by yellow and red dots on the map.

Hover mouse over dot to see the name of the station.

Then click to see weather observations and forecasts.

To change the map : click on the green buttons with a black cross to zoom in, on the green button with a dash to zoom out, or on the green arrows for adjacent maps.


METAR-TAF: